Flight Track Log - Related Links

Times and Time Zones

All times are in EDT time to prevent confusion due to time zone crossing. See the NKS417 flight status page for this flight to view local times or setup timezone preferences in your user account.


Time Position Orientation Groundspeed Altitude Reporting Facility
EDT Latitude Longitude Course Direction KTS MPH feet Rate Location/Type
Sun 07:02:14 AM 42.2314 -83.3342 43° Northeast 163 188 1,200  Level Cleveland Center
Sun 07:03:21 AM 42.2678 -83.2881 47° Northeast 198 228 2,900 1,875 Climbing Cleveland Center
Sun 07:04:22 AM 42.3153 -83.2200 98° East 249 287 5,200 2,331 Climbing Cleveland Center
Sun 07:05:22 AM 42.3050 -83.1239 125° Southeast 283 326 7,600 2,140 Climbing Cleveland Center
Sun 07:06:59 AM 42.2269 -82.9750 203° Southwest 328 377 10,800 1,834 Climbing Cleveland Center
Sun 07:07:59 AM 42.1342 -83.0275 205° Southwest 283 326 12,400 2,100 Climbing Cleveland Center
Sun 07:08:59 AM 42.0389 -83.0883 203° Southwest 338 389 15,000 2,091 Climbing Cleveland Center
Sun 07:10:11 AM 41.9397 -83.1458 202° Southwest 382 440 17,000 1,727 Climbing Cleveland Center
Sun 07:11:11 AM 41.8150 -83.2133 202° Southwest 395 455 18,800 1,650 Climbing Cleveland Center
Sun 07:12:11 AM 41.7094 -83.2700 203° Southwest 411 473 20,300 1,600 Climbing Cleveland Center
Sun 07:13:11 AM 41.5975 -83.3322 202° Southwest 429 494 22,000 1,550 Climbing Cleveland Center
Sun 07:14:11 AM 41.4814 -83.3964 201° Southwest 444 511 23,400 1,250 Climbing Cleveland Center
Sun 07:15:11 AM 41.3778 -83.4500 202° Southwest 444 511 24,500 1,250 Climbing Cleveland Center
Sun 07:16:11 AM 41.2636 -83.5114 203° Southwest 444 511 25,900 1,308 Climbing Cleveland Center
Sun 07:17:47 AM 41.0636 -83.6258 203° Southwest 445 512 27,900 1,123 Climbing Indianapolis Center
Sun 07:18:46 AM 40.9428 -83.6944 201° Southwest 465 535 28,800 908 Climbing Indianapolis Center
Sun 07:19:46 AM 40.8322 -83.7517 183° South 475 547 29,700 1,100 Climbing Indianapolis Center
Sun 07:20:46 AM 40.6969 -83.7597 182° South 482 555 31,000 1,350 Climbing Indianapolis Center
Sun 07:21:46 AM 40.5678 -83.7647 182° South 481 554 32,400 1,250 Climbing Indianapolis Center
Sun 07:22:46 AM 40.4364 -83.7697 182° South 475 547 33,500 950 Climbing Indianapolis Center
Sun 07:23:46 AM 40.3072 -83.7747 181° South 475 547 34,300 744 Climbing Indianapolis Center
Sun 07:24:47 AM 40.1778 -83.7769 183° South 475 547 35,000 298 Climbing Indianapolis Center
Sun 07:25:47 AM 40.0508 -83.7847 182° South 470 541 34,900 -50 Descending Indianapolis Center
Sun 07:26:46 AM 39.9214 -83.7897 181° South 470 541 34,900 50 Level Indianapolis Center
Sun 07:27:46 AM 39.7944 -83.7922 181° South 470 541 35,000  Climbing Indianapolis Center
Sun 07:28:46 AM 39.6650 -83.7944 181° South 470 541 34,900 -50 Descending Indianapolis Center
Sun 07:29:46 AM 39.5358 -83.7967 182° South 470 541 34,900  Level Indianapolis Center
Sun 07:30:46 AM 39.4067 -83.8017 181° South 459 528 34,900 50 Level Indianapolis Center
Sun 07:31:46 AM 39.2772 -83.8039 181° South 459 528 35,000 50 Climbing Indianapolis Center
Sun 07:32:46 AM 39.1333 -83.8061 183° South 464 534 35,000  Level Indianapolis Center
Sun 07:33:47 AM 39.0042 -83.8136 181° South 464 534 35,000  Level Indianapolis Center
Sun 07:34:46 AM 38.8769 -83.8158 181° South 464 534 35,000 -50 Level Indianapolis Center
Sun 07:35:46 AM 38.7456 -83.8181 182° South 459 528 34,900  Descending Indianapolis Center
Sun 07:36:47 AM 38.6203 -83.8228 182° South 459 528 35,000 50 Climbing Indianapolis Center
Sun 07:37:46 AM 38.4931 -83.8278 181° South 459 528 35,000  Level Indianapolis Center
Sun 07:38:46 AM 38.3639 -83.8297 182° South 459 528 35,000  Level Indianapolis Center
Sun 07:39:46 AM 38.2367 -83.8347 180° South 459 528 35,000  Level Indianapolis Center
Sun 07:40:55 AM 38.0823 -83.8363 181° South 461 531 35,000  Level FlightAware ADS-B
Sun 07:42:36 AM 37.8651 -83.8423 181° South 462 532 35,000  Level FlightAware ADS-B
Sun 07:43:13 AM 37.7881 -83.8444 181° South 462 532 35,000  Level FlightAware ADS-B
Sun 07:44:24 AM 37.6369 -83.8485 181° South 458 527 35,000  Level FlightAware ADS-B
Sun 07:44:55 AM 37.5705 -83.8503 181° South 457 526 35,000  Level FlightAware ADS-B
Sun 07:45:26 AM 37.5060 -83.8520 181° South 456 525 35,000  Level FlightAware ADS-B
Sun 07:45:59 AM 37.4354 -83.8540 181° South 455 524 35,000  Level FlightAware ADS-B
Sun 07:46:36 AM 37.3572 -83.8563 181° South 454 522 35,000  Level FlightAware ADS-B
Sun 07:47:08 AM 37.2914 -83.8580 181° South 454 522 35,000  Level FlightAware ADS-B
Sun 07:47:38 AM 37.2266 -83.8597 181° South 453 521 35,000  Level FlightAware ADS-B
Sun 07:48:09 AM 37.1624 -83.8614 181° South 452 520 35,000  Level FlightAware ADS-B
Sun 07:48:39 AM 37.0990 -83.8631 181° South 452 520 35,000  Level FlightAware ADS-B
Sun 07:49:22 AM 37.0118 -83.8656 181° South 451 519 35,000  Level FlightAware ADS-B
Sun 07:49:52 AM 36.9465 -83.8672 181° South 451 519 35,000  Level FlightAware ADS-B
Sun 07:50:25 AM 36.8798 -83.8690 181° South 451 519 35,000  Level FlightAware ADS-B
Sun 07:50:55 AM 36.8158 -83.8708 181° South 451 519 35,000  Level FlightAware ADS-B
Sun 07:51:28 AM 36.7465 -83.8725 181° South 450 518 35,000  Level FlightAware ADS-B
Sun 07:52:02 AM 36.6779 -83.8743 181° South 450 518 35,000  Level FlightAware ADS-B
Sun 07:52:36 AM 36.6044 -83.8763 181° South 450 518 35,000  Level FlightAware ADS-B
Sun 07:53:07 AM 36.5412 -83.8780 181° South 450 518 35,000  Level FlightAware ADS-B
Sun 07:53:37 AM 36.4793 -83.8797 181° South 450 518 35,000  Level FlightAware ADS-B
Sun 07:54:08 AM 36.4143 -83.8814 181° South 449 517 35,000  Level FlightAware ADS-B
Sun 07:54:38 AM 36.3516 -83.8831 181° South 449 517 35,000  Level FlightAware ADS-B
Sun 07:55:12 AM 36.2813 -83.8850 181° South 449 517 35,000  Level FlightAware ADS-B
Sun 07:55:43 AM 36.2165 -83.8866 181° South 449 517 35,000  Level FlightAware ADS-B
Sun 07:56:14 AM 36.1517 -83.8884 181° South 448 516 35,000  Level FlightAware ADS-B
Sun 07:56:45 AM 36.0880 -83.8901 181° South 447 514 35,000  Level FlightAware ADS-B
Sun 07:57:15 AM 36.0255 -83.8918 181° South 446 513 35,000  Level FlightAware ADS-B
Sun 07:57:46 AM 35.9617 -83.8933 178° South 446 513 35,000  Level FlightAware ADS-B
Sun 07:58:04 AM 35.9241 -83.8915 174° South 446 513 35,000  Level FlightAware ADS-B
Sun 07:58:23 AM 35.8868 -83.8866 170° South 446 513 35,000  Level FlightAware ADS-B
Sun 07:58:41 AM 35.8502 -83.8786 166° South 446 513 35,000  Level FlightAware ADS-B
Sun 07:59:12 AM 35.7877 -83.8599 166° South 446 513 35,000  Level FlightAware ADS-B
Sun 07:59:42 AM 35.7266 -83.8417 167° South 447 514 35,000  Level FlightAware ADS-B
Sun 08:00:13 AM 35.6656 -83.8237 166° South 447 514 35,000  Level FlightAware ADS-B
Sun 08:00:43 AM 35.6045 -83.8056 167° South 447 514 35,000  Level FlightAware ADS-B
Sun 08:01:13 AM 35.5433 -83.7876 166° South 449 517 35,000  Level FlightAware ADS-B
Sun 08:01:45 AM 35.4794 -83.7687 166° South 451 519 35,000  Level FlightAware ADS-B
Sun 08:02:20 AM 35.4083 -83.7477 166° South 451 519 35,000  Level FlightAware ADS-B
Sun 08:02:52 AM 35.3434 -83.7286 167° South 450 518 35,000  Level FlightAware ADS-B
Sun 08:03:24 AM 35.2791 -83.7099 166° South 449 517 35,000  Level FlightAware ADS-B
Sun 08:03:55 AM 35.2159 -83.6912 166° South 449 517 35,000  Level FlightAware ADS-B
Sun 08:04:26 AM 35.1534 -83.6728 167° South 447 514 35,000  Level FlightAware ADS-B
Sun 08:04:59 AM 35.0863 -83.6532 167° South 447 514 35,000  Level FlightAware ADS-B
Sun 08:05:36 AM 35.0125 -83.6316 167° South 446 513 35,000  Level FlightAware ADS-B
Sun 08:06:08 AM 34.9512 -83.6138 167° South 445 512 35,000  Level FlightAware ADS-B
Sun 08:06:22 AM 34.9209 -83.6050 167° South 444 511 35,000  Level FlightAware ADS-B
Sun 08:06:48 AM 34.8692 -83.5900 167° South 443 510 35,000  Level FlightAware ADS-B
Sun 08:07:09 AM 34.8273 -83.5778 167° South 442 509 35,000  Level FlightAware ADS-B
Sun 08:07:56 AM 34.7324 -83.5504 167° South 440 506 35,000  Level FlightAware ADS-B
Sun 08:08:28 AM 34.6742 -83.5335 166° South 438 504 35,000  Level FlightAware ADS-B
Sun 08:08:58 AM 34.6105 -83.5149 167° South 436 502 35,000  Level FlightAware ADS-B
Sun 08:09:29 AM 34.5497 -83.4974 167° South 435 501 35,000  Level FlightAware ADS-B
Sun 08:10:00 AM 34.4891 -83.4798 167° South 434 499 35,000  Level FlightAware ADS-B
Sun 08:10:31 AM 34.4290 -83.4625 167° South 434 499 35,000  Level FlightAware ADS-B
Sun 08:11:02 AM 34.3683 -83.4451 167° South 435 501 35,000  Level FlightAware ADS-B
Sun 08:11:33 AM 34.3069 -83.4275 167° South 436 502 35,000  Level FlightAware ADS-B
Sun 08:12:07 AM 34.2401 -83.4084 167° South 436 502 35,000  Level FlightAware ADS-B
Sun 08:12:40 AM 34.1770 -83.3905 167° South 436 502 35,000 190 Level FlightAware ADS-B
Sun 08:13:10 AM 34.1175 -83.3735 167° South 436 502 35,200 387 Climbing FlightAware ADS-B
Sun 08:13:42 AM 34.0659 -83.3587 167° South 434 499 35,400 434 Climbing FlightAware ADS-B
Sun 08:14:33 AM 33.9551 -83.3272 165° South 433 498 35,800 340 Climbing FlightAware ADS-B
Sun 08:15:28 AM 33.8672 -83.2983 163° South 430 495 36,000 104 Climbing Atlanta Center
Sun 08:16:28 AM 33.7394 -83.2519 164° South 438 504 36,000  Level Atlanta Center
Sun 08:17:28 AM 33.6183 -83.2106 164° South 438 504 36,000  Level Atlanta Center
Sun 08:18:28 AM 33.5031 -83.1719 164° South 438 504 36,000  Level Atlanta Center
Sun 08:19:28 AM 33.3817 -83.1308 163° South 438 504 36,000  Level Atlanta Center
Sun 08:20:28 AM 33.2875 -83.0969 164° South 438 504 36,000  Level Atlanta Center
Sun 08:21:28 AM 33.1453 -83.0489 166° South 438 504 36,000  Level Atlanta Center
Sun 08:22:28 AM 33.0364 -83.0156 164° South 438 504 36,000  Level Atlanta Center
Sun 08:24:58 AM 32.7281 -82.9100 164° South 443 510 36,000  Level Jacksonville Center
Sun 08:25:58 AM 32.6175 -82.8728 163° South 449 517 36,000  Level Jacksonville Center
Sun 08:26:58 AM 32.4942 -82.8286 164° South 454 522 36,000  Level Jacksonville Center
Sun 08:27:58 AM 32.3647 -82.7844 164° South 454 522 36,000  Level Jacksonville Center
Sun 08:28:58 AM 32.2436 -82.7428 164° South 454 522 36,000  Level Jacksonville Center
Sun 08:29:58 AM 32.1225 -82.7011 165° South 454 522 36,000  Level Jacksonville Center
Sun 08:30:58 AM 31.9992 -82.6622 164° South 454 522 36,000  Level Jacksonville Center
Sun 08:31:58 AM 31.8739 -82.6186 165° South 454 522 36,000  Level Jacksonville Center
Sun 08:32:58 AM 31.7528 -82.5797 164° South 454 522 36,000  Level Jacksonville Center
Sun 08:33:58 AM 31.6275 -82.5389 169° South 454 522 36,000  Level Jacksonville Center
Sun 08:34:58 AM 31.5000 -82.5100 181° South 454 522 36,000  Level Jacksonville Center
Sun 08:35:58 AM 31.3767 -82.5131 184° South 454 522 36,000 -50 Level Jacksonville Center
Sun 08:36:58 AM 31.2639 -82.5231 182° South 448 516 35,900 -50 Descending Jacksonville Center
Sun 08:37:58 AM 31.1408 -82.5283 181° South 448 516 35,900  Level Jacksonville Center
Sun 08:38:58 AM 31.0156 -82.5314 183° South 448 516 35,900 50 Level Jacksonville Center
Sun 08:39:58 AM 30.8925 -82.5392 182° South 448 516 36,000 50 Climbing Jacksonville Center
Sun 08:40:58 AM 30.7692 -82.5444 182° South 448 516 36,000  Level Jacksonville Center
Sun 08:41:58 AM 30.6419 -82.5497 182° South 448 516 36,000 -50 Level Jacksonville Center
Sun 08:42:58 AM 30.5186 -82.5550 177° South 448 516 35,900  Descending Jacksonville Center
Sun 08:43:58 AM 30.3933 -82.5481 176° South 448 516 36,000 50 Climbing Jacksonville Center
Sun 08:44:58 AM 30.2661 -82.5367 176° South 455 524 36,000  Level Jacksonville Center
Sun 08:45:58 AM 30.1408 -82.5275 176° South 461 531 36,000 -50 Level Jacksonville Center
Sun 08:46:58 AM 30.0028 -82.5161 175° South 461 531 35,900 -250 Descending Jacksonville Center
Sun 08:47:58 AM 29.8922 -82.5044 176° South 456 525 35,500 -450 Descending Jacksonville Center
Sun 08:48:58 AM 29.7647 -82.4953 177° South 463 533 35,000 -250 Descending Jacksonville Center
Sun 08:49:58 AM 29.6353 -82.4864 176° South 463 533 35,000  Level Jacksonville Center
Sun 08:50:58 AM 29.5081 -82.4750 176° South 463 533 35,000 -50 Level Jacksonville Center
Sun 08:51:58 AM 29.3786 -82.4658 177° South 463 533 34,900  Descending Jacksonville Center
Sun 08:52:58 AM 29.2492 -82.4569 177° South 463 533 35,000 50 Climbing Jacksonville Center
Sun 08:53:58 AM 29.1197 -82.4481 181° South 463 533 35,000 -50 Level Jacksonville Center
Sun 08:54:58 AM 28.9903 -82.4511 183° South 463 533 34,900 -50 Descending Jacksonville Center
Sun 08:55:58 AM 28.8608 -82.4586 183° South 463 533 34,900 50 Level Jacksonville Center
Sun 08:56:58 AM 28.7294 -82.4664 183° South 468 539 35,000 50 Climbing Jacksonville Center
Sun 08:57:58 AM 28.5833 -82.4764 183° South 473 544 35,000  Level Jacksonville Center
Sun 09:01:01 AM 28.1772 -82.4992 183° South 505 581 35,000  Level Miami Center
Sun 09:02:01 AM 28.0478 -82.5069 178° South 477 549 35,000  Level Miami Center
Sun 09:03:01 AM 27.9144 -82.5025 161° South 472 543 35,000 -50 Level Miami Center
Sun 09:04:01 AM 27.7850 -82.4517 160° South 470 541 34,900 -450 Descending Miami Center
Sun 09:05:01 AM 27.6719 -82.4061 159° South 482 555 34,100 -850 Descending Miami Center
Sun 09:06:01 AM 27.5447 -82.3508 143° Southeast 494 568 33,200 -1,000 Descending Miami Center
Sun 09:07:01 AM 27.4233 -82.2492 144° Southeast 494 568 32,100 -1,000 Descending Miami Center
Sun 09:08:01 AM 27.3119 -82.1575 144° Southeast 494 568 31,200 -950 Descending Miami Center
Sun 09:09:01 AM 27.2106 -82.0758 145° Southeast 494 568 30,200 -1,150 Descending Miami Center
Sun 09:10:01 AM 27.1008 -81.9894 143° Southeast 494 568 28,900 -1,733 Descending Miami Center
Sun 09:12:01 AM 26.8900 -81.8125 141° Southeast 481 554 25,000 -1,520 Descending Miami Center
Sun 09:15:01 AM 26.5983 -81.5469 133° Southeast 451 519 21,300 -1,743 Descending Miami Center
Sun 09:19:01 AM 26.2881 -81.1803 135° Southeast 390 449 12,800 -2,120 Descending Miami Center
Sun 09:20:01 AM 26.2192 -81.1039 134° Southeast 373 429 10,700 -1,966 Descending Miami Center
Sun 09:21:00 AM 26.1525 -81.0275 121° Southeast 294 338 8,900 -1,433 Descending Miami Center
Sun 09:23:01 AM 26.0789 -80.8931 88° East 272 313 6,400 -1,160 Descending Miami Center
Sun 09:24:01 AM 26.0814 -80.8053 321° Northwest 262 302 5,400 -1,000 Descending Miami Center
Sun 09:24:32 AM 26.6857 -81.3471 209° Southwest  Level FlightAware Approximate
Sun 09:25:32 AM 26.5598 -81.4249 109° East  Level FlightAware Approximate
Sun 09:26:32 AM 26.5212 -81.3029 110° East  Level FlightAware Approximate
Sun 09:27:32 AM 26.4825 -81.1810 151° Southeast  Level FlightAware Approximate
Sun 09:28:32 AM 26.2714 -81.0525 171° South  Level FlightAware Approximate
Sun 09:29:32 AM 26.1333 -81.0277 110° East  Level FlightAware Approximate
Sun 09:30:32 AM 26.1000 -80.9244 96° East  Level FlightAware Approximate
Sun 09:31:32 AM 26.0880 -80.7962 83° East  Level FlightAware Approximate
Sun 09:32:32 AM 26.0914 -80.7649 92° East  Level FlightAware Approximate
Sun 09:33:32 AM 26.0886 -80.6767 82° East  Level FlightAware Approximate
Sun 09:34:32 AM 26.1037 -80.5489 86° East  Level FlightAware Approximate
Sun 09:35:32 AM 26.1113 -80.4212 79° East  Level FlightAware Approximate

Login

Don't have an account? Register now (free) for customized features, flight alerts, and more!